Time;durP1;ratioP1;P1;durP2;ratioP2;P2;SDS_P1;SDS_P2;PMS_P1;PMS_P2;Temp;Humidity;BMP_temperature;BMP_pressure;BME280_temperature;BME280_humidity;BME280_pressure;Samples;Min_cycle;Max_cycle;Signal;HPM_P1;HPM_P2
2023/04/16 00:01:01;;;;;;;29.90;15.80;;;6.90;99.90;;;;;;5083957;28;20825;-65
2023/04/16 00:03:27;;;;;;;26.27;15.10;;;6.90;99.90;;;;;;5083869;28;20415;-64
2023/04/16 00:05:54;;;;;;;;;;;6.90;99.90;;;;;;5086899;28;20040;-62
2023/04/16 00:08:23;;;;;;;24.52;14.55;;;6.90;99.90;;;;;;5087409;28;19924;-64
2023/04/16 00:10:49;;;;;;;27.20;14.27;;;6.90;99.90;;;;;;5085881;28;20046;-64
2023/04/16 00:13:15;;;;;;;25.83;15.32;;;7.00;99.90;;;;;;5083496;28;20118;-65
2023/04/16 00:15:40;;;;;;;22.75;14.18;;;7.00;99.90;;;;;;5084557;28;20400;-62
2023/04/16 00:18:06;;;;;;;;;;;7.00;99.90;;;;;;5072376;28;20040;-64
2023/04/16 00:20:31;;;;;;;23.65;13.73;;;7.00;99.90;;;;;;5071063;28;19924;-62
2023/04/16 00:22:57;;;;;;;;;;;7.00;99.90;;;;;;5074002;28;20499;-64
2023/04/16 00:25:23;;;;;;;21.50;12.27;;;7.10;99.90;;;;;;5073492;28;19927;-64
2023/04/16 00:27:48;;;;;;;19.80;11.65;;;7.10;99.90;;;;;;5073800;28;20509;-63
2023/04/16 00:30:14;;;;;;;19.83;11.40;;;7.10;99.90;;;;;;5072490;28;20079;-63
2023/04/16 00:32:39;;;;;;;25.80;13.32;;;7.10;99.90;;;;;;5069890;28;20048;-64
2023/04/16 00:35:05;;;;;;;;;;;7.10;99.90;;;;;;5071270;28;20036;-65
2023/04/16 00:37:31;;;;;;;36.17;16.05;;;7.10;99.90;;;;;;5072376;28;19920;-64
2023/04/16 00:39:56;;;;;;;;;;;7.10;99.90;;;;;;5077039;28;20392;-69
2023/04/16 00:42:22;;;;;;;24.58;14.30;;;7.00;99.90;;;;;;5075523;28;19932;-65
2023/04/16 00:44:47;;;;;;;27.38;14.45;;;7.10;99.90;;;;;;5077001;28;20070;-67
2023/04/16 00:47:13;;;;;;;33.30;18.13;;;7.10;99.90;;;;;;5075605;28;20186;-64
2023/04/16 00:49:39;;;;;;;34.50;17.23;;;7.00;99.90;;;;;;5076015;28;20036;-69
2023/04/16 00:52:05;;;;;;;34.83;18.42;;;7.00;99.90;;;;;;5074271;28;20045;-69
2023/04/16 00:54:31;;;;;;;32.90;19.08;;;7.00;99.90;;;;;;5074067;28;20044;-64
2023/04/16 00:56:58;;;;;;;30.90;17.70;;;7.00;99.90;;;;;;5076075;28;20118;-64
2023/04/16 00:59:24;;;;;;;62.92;24.00;;;7.00;99.90;;;;;;5077452;28;20040;-70
2023/04/16 01:01:49;;;;;;;39.38;20.48;;;7.00;99.90;;;;;;5072675;28;20040;-66
2023/04/16 01:04:15;;;;;;;;;;;7.00;99.90;;;;;;5073311;28;20043;-66
2023/04/16 01:06:40;;;;;;;40.63;22.88;;;7.10;99.90;;;;;;5076942;28;19954;-65
2023/04/16 01:09:06;;;;;;;;;;;7.10;99.90;;;;;;5074710;28;20135;-70
2023/04/16 01:11:31;;;;;;;40.38;21.02;;;7.10;99.90;;;;;;5075903;28;19924;-64
2023/04/16 01:13:57;;;;;;;41.40;22.80;;;7.00;99.90;;;;;;5096461;28;20043;-73
2023/04/16 01:16:22;;;;;;;39.80;22.45;;;7.10;99.90;;;;;;5074886;28;20051;-65
2023/04/16 01:18:48;;;;;;;42.22;22.48;;;7.10;99.90;;;;;;5071271;28;20040;-64
2023/04/16 01:21:14;;;;;;;45.47;25.45;;;7.10;99.90;;;;;;5070796;28;20075;-64
2023/04/16 01:23:39;;;;;;;40.63;22.13;;;7.10;99.90;;;;;;5069013;28;20124;-66
2023/04/16 01:26:05;;;;;;;;;;;7.10;99.90;;;;;;5071692;28;20688;-65
2023/04/16 01:28:31;;;;;;;45.95;23.27;;;7.10;99.90;;;;;;5072013;28;20050;-63
2023/04/16 01:30:56;;;;;;;52.35;27.20;;;7.10;99.90;;;;;;5067890;28;20071;-65
2023/04/16 01:33:22;;;;;;;49.63;26.02;;;7.10;99.90;;;;;;5068702;28;20040;-65
2023/04/16 01:35:48;;;;;;;48.83;26.38;;;7.10;99.90;;;;;;5071552;28;20527;-62
2023/04/16 01:38:13;;;;;;;45.03;24.23;;;7.10;99.90;;;;;;5071197;28;20131;-64
2023/04/16 01:40:39;;;;;;;68.43;28.08;;;7.10;99.90;;;;;;5070596;28;20036;-64
2023/04/16 01:43:05;;;;;;;62.30;26.90;;;7.00;99.90;;;;;;5091057;28;20040;-62
2023/04/16 01:45:31;;;;;;;;;;;7.00;99.90;;;;;;5069681;28;20044;-64
2023/04/16 01:47:56;;;;;;;57.30;25.42;;;7.10;99.90;;;;;;5070497;28;19930;-62
2023/04/16 01:50:22;;;;;;;54.97;24.02;;;7.00;99.90;;;;;;5069905;28;20032;-64
2023/04/16 01:52:48;;;;;;;;;;;7.00;99.90;;;;;;5068896;28;20113;-65
2023/04/16 01:55:14;;;;;;;29.65;16.85;;;7.00;99.90;;;;;;5066390;28;19962;-63
2023/04/16 01:57:40;;;;;;;33.85;18.30;;;7.00;99.90;;;;;;5071632;28;20566;-63
2023/04/16 02:00:07;;;;;;;32.00;18.15;;;7.00;99.90;;;;;;5070581;28;20039;-65
2023/04/16 02:02:34;;;;;;;27.95;16.52;;;7.10;99.90;;;;;;5065236;28;20106;-64
2023/04/16 02:05:00;;;;;;;29.17;16.73;;;7.00;99.90;;;;;;5070999;28;20093;-65
2023/04/16 02:07:26;;;;;;;28.00;17.08;;;7.00;99.90;;;;;;5070460;28;20122;-63
2023/04/16 02:09:52;;;;;;;35.22;18.65;;;7.00;99.90;;;;;;5071459;28;20063;-61
2023/04/16 02:12:19;;;;;;;43.38;20.15;;;7.10;99.90;;;;;;5048491;28;20469;-64
2023/04/16 02:14:44;;;;;;;35.85;18.00;;;7.10;99.90;;;;;;5065875;28;20546;-65
2023/04/16 02:17:10;;;;;;;39.00;19.58;;;7.10;99.90;;;;;;5084989;28;20044;-65
2023/04/16 02:19:36;;;;;;;;;;;7.00;99.90;;;;;;5070222;28;20511;-64
2023/04/16 02:22:02;;;;;;;33.05;19.45;;;7.10;99.90;;;;;;5068852;28;20026;-63
2023/04/16 02:24:28;;;;;;;49.53;22.00;;;7.00;99.90;;;;;;5070272;28;20036;-63
2023/04/16 02:26:54;;;;;;;53.40;21.05;;;7.10;99.90;;;;;;5070311;28;20044;-63
2023/04/16 02:29:20;;;;;;;;;;;7.00;99.90;;;;;;5071266;28;20105;-64
2023/04/16 02:31:45;;;;;;;132.65;24.58;;;7.00;99.90;;;;;;5066548;28;19989;-62
2023/04/16 02:34:11;;;;;;;84.07;21.95;;;7.00;99.90;;;;;;5067972;28;20048;-65
2023/04/16 02:36:37;;;;;;;;;;;7.00;99.90;;;;;;5088852;28;20130;-64
2023/04/16 02:39:03;;;;;;;58.80;17.58;;;7.00;99.90;;;;;;5070806;28;19947;-65
2023/04/16 02:41:29;;;;;;;;;;;7.10;99.90;;;;;;5068491;28;20044;-63
2023/04/16 02:43:55;;;;;;;212.88;23.88;;;7.00;99.90;;;;;;5070407;28;19924;-64
2023/04/16 02:46:21;;;;;;;63.65;19.35;;;7.00;99.90;;;;;;5090752;28;20969;-63
2023/04/16 02:48:46;;;;;;;71.70;17.80;;;7.00;99.90;;;;;;5069873;28;20050;-65
2023/04/16 02:51:12;;;;;;;;;;;7.00;99.90;;;;;;5069736;28;20076;-65
2023/04/16 02:53:37;;;;;;;221.77;25.08;;;7.00;99.90;;;;;;5069733;28;19924;-65
2023/04/16 02:56:03;;;;;;;150.85;21.33;;;7.00;99.90;;;;;;5070163;28;20044;-64
2023/04/16 02:58:28;;;;;;;434.17;36.83;;;7.00;99.90;;;;;;5069116;28;20048;-63
2023/04/16 03:00:54;;;;;;;;;;;6.90;99.90;;;;;;5068131;28;20040;-65
2023/04/16 03:03:20;;;;;;;186.05;23.77;;;7.00;99.90;;;;;;5062537;28;20014;-64
2023/04/16 03:05:46;;;;;;;183.70;27.83;;;6.80;99.90;;;;;;5069894;28;20048;-65
2023/04/16 03:08:12;;;;;;;67.78;19.50;;;6.90;99.90;;;;;;5070183;28;20106;-66
2023/04/16 03:10:37;;;;;;;111.63;20.17;;;6.90;99.90;;;;;;5069221;28;20044;-65
2023/04/16 03:13:03;;;;;;;258.75;27.40;;;6.90;99.90;;;;;;5070491;28;20036;-66
2023/04/16 03:15:29;;;;;;;;;;;6.90;99.90;;;;;;5070022;28;20044;-66
2023/04/16 03:17:55;;;;;;;201.95;26.92;;;6.90;99.90;;;;;;5069945;28;19931;-65
2023/04/16 03:20:21;;;;;;;476.10;37.38;;;6.90;99.90;;;;;;5069843;28;20040;-62
2023/04/16 03:22:46;;;;;;;112.50;21.17;;;6.80;99.90;;;;;;5061099;28;20048;-65
2023/04/16 03:25:12;;;;;;;;;;;6.90;99.90;;;;;;5070139;28;20441;-63
2023/04/16 03:27:41;;;;;;;72.65;22.38;;;6.80;99.90;;;;;;5069793;28;19993;-63
2023/04/16 03:30:09;;;;;;;230.65;28.02;;;6.90;99.90;;;;;;5069824;28;20122;-65
2023/04/16 03:32:35;;;;;;;145.57;26.30;;;6.80;99.90;;;;;;5066724;28;20093;-66
2023/04/16 03:35:03;;;;;;;117.18;22.25;;;6.90;99.90;;;;;;5069614;28;20518;-65
2023/04/16 03:37:28;;;;;;;221.60;29.90;;;6.90;99.90;;;;;;5069949;28;20048;-65
2023/04/16 03:39:54;;;;;;;86.18;23.33;;;6.90;99.90;;;;;;5069636;28;20447;-66
2023/04/16 03:42:19;;;;;;;92.90;22.25;;;6.90;99.90;;;;;;5067389;28;20127;-67
2023/04/16 03:44:45;;;;;;;205.52;26.42;;;6.90;99.90;;;;;;5067218;28;20126;-65
2023/04/16 03:47:10;;;;;;;454.45;44.45;;;6.90;99.90;;;;;;5068886;28;20076;-65
2023/04/16 03:49:36;;;;;;;394.05;38.42;;;6.90;99.90;;;;;;5069723;28;20040;-65
2023/04/16 03:52:01;;;;;;;177.70;24.83;;;6.80;99.90;;;;;;5069159;28;20078;-63
2023/04/16 03:54:27;;;;;;;127.05;26.30;;;6.80;99.90;;;;;;5072939;28;20044;-65
2023/04/16 03:56:53;;;;;;;130.02;25.27;;;6.80;99.90;;;;;;5072959;28;20053;-63
2023/04/16 03:59:18;;;;;;;;;;;6.80;99.90;;;;;;5067413;28;20048;-64
2023/04/16 04:01:44;;;;;;;51.92;22.13;;;6.80;99.90;;;;;;5069916;28;19924;-63
2023/04/16 04:04:09;;;;;;;179.43;30.02;;;6.90;99.90;;;;;;5069485;28;20184;-62
2023/04/16 04:06:35;;;;;;;;;;;6.80;99.90;;;;;;5073170;28;20098;-66
2023/04/16 04:09:01;;;;;;;129.48;24.70;;;6.80;99.90;;;;;;5072578;28;19924;-62
2023/04/16 04:11:27;;;;;;;151.57;26.05;;;6.80;99.90;;;;;;5072789;28;20048;-70
2023/04/16 04:13:52;;;;;;;47.13;22.50;;;6.80;99.90;;;;;;5073197;28;20048;-66
2023/04/16 04:16:18;;;;;;;175.95;27.15;;;6.80;99.90;;;;;;5074699;28;20044;-67
2023/04/16 04:18:44;;;;;;;;;;;6.80;99.90;;;;;;5076327;28;20070;-68
2023/04/16 04:21:09;;;;;;;241.18;30.52;;;6.80;99.90;;;;;;5074319;28;19927;-65
2023/04/16 04:23:35;;;;;;;66.72;23.00;;;6.80;99.90;;;;;;5072234;28;20051;-65
2023/04/16 04:26:02;;;;;;;145.93;28.00;;;6.80;99.90;;;;;;5072998;28;20044;-65
2023/04/16 04:28:32;;;;;;;180.05;27.75;;;6.80;99.90;;;;;;5072564;28;20438;-65
2023/04/16 04:30:58;;;;;;;40.80;21.13;;;6.80;99.90;;;;;;5070522;28;20185;-65
2023/04/16 04:33:25;;;;;;;46.85;21.50;;;6.90;99.90;;;;;;5068761;28;21252;-63
2023/04/16 04:35:51;;;;;;;132.18;26.70;;;6.90;99.90;;;;;;5068749;28;20130;-65
2023/04/16 04:38:21;;;;;;;90.63;22.40;;;6.80;99.90;;;;;;5072253;28;20228;-63
2023/04/16 04:40:51;;;;;;;55.15;23.80;;;6.90;99.90;;;;;;5070819;28;20059;-65
2023/04/16 04:43:18;;;;;;;53.95;23.08;;;6.80;99.90;;;;;;5071401;28;20048;-62
2023/04/16 04:45:44;;;;;;;82.43;21.80;;;6.80;99.90;;;;;;5072660;28;20048;-66
2023/04/16 04:48:09;;;;;;;80.13;21.17;;;6.90;99.90;;;;;;5072982;28;20704;-65
2023/04/16 04:50:35;;;;;;;35.45;18.73;;;6.90;99.90;;;;;;5070839;28;20086;-65
2023/04/16 04:53:01;;;;;;;45.83;19.27;;;6.90;99.90;;;;;;5069325;28;20040;-64
2023/04/16 04:55:26;;;;;;;204.57;25.20;;;6.90;99.90;;;;;;5072302;28;20044;-62
2023/04/16 04:57:52;;;;;;;;;;;6.90;99.90;;;;;;5072573;28;20036;-64
2023/04/16 05:00:18;;;;;;;60.47;20.83;;;6.90;99.90;;;;;;5071659;28;20395;-67
2023/04/16 05:02:43;;;;;;;163.63;25.27;;;6.90;99.90;;;;;;5069874;28;20040;-64
2023/04/16 05:05:09;;;;;;;41.47;18.75;;;6.90;99.90;;;;;;5070989;28;20043;-66
2023/04/16 05:07:34;;;;;;;;;;;6.90;99.90;;;;;;5071123;28;20052;-66
2023/04/16 05:10:00;;;;;;;101.07;22.50;;;6.90;99.90;;;;;;5065834;28;19927;-65
2023/04/16 05:12:25;;;;;;;;;;;6.80;99.90;;;;;;5070425;28;20067;-66
2023/04/16 05:14:51;;;;;;;51.40;21.02;;;6.80;99.90;;;;;;5072121;28;21105;-64
2023/04/16 05:17:17;;;;;;;;;;;6.80;99.90;;;;;;5075479;28;20078;-70
2023/04/16 05:19:42;;;;;;;44.70;19.02;;;6.80;99.90;;;;;;5073378;28;19931;-64
2023/04/16 05:22:08;;;;;;;158.85;28.40;;;6.80;99.90;;;;;;5071692;28;20503;-66
2023/04/16 05:24:33;;;;;;;88.65;22.00;;;6.70;99.90;;;;;;5071207;28;20037;-67
2023/04/16 05:27:00;;;;;;;;;;;6.70;99.90;;;;;;5074859;28;20610;-67
2023/04/16 05:29:26;;;;;;;79.22;20.85;;;6.80;99.90;;;;;;5070909;28;20103;-65
2023/04/16 05:31:51;;;;;;;148.68;24.80;;;6.70;99.90;;;;;;5069355;28;20567;-65
2023/04/16 05:34:17;;;;;;;;;;;6.70;99.90;;;;;;5070953;28;20047;-66
2023/04/16 05:36:42;;;;;;;137.13;25.63;;;6.80;99.90;;;;;;5065930;28;19923;-67
2023/04/16 05:39:09;;;;;;;225.35;30.67;;;6.70;99.90;;;;;;5070763;28;20081;-65
2023/04/16 05:41:35;;;;;;;254.90;32.42;;;6.70;99.90;;;;;;5068818;28;20135;-65
2023/04/16 05:44:00;;;;;;;109.85;27.20;;;6.70;99.90;;;;;;5070144;28;20042;-64
2023/04/16 05:46:26;;;;;;;129.30;27.95;;;6.70;99.90;;;;;;5071295;28;20128;-64
2023/04/16 05:48:52;;;;;;;68.47;23.00;;;6.70;99.90;;;;;;5071089;28;20179;-64
2023/04/16 05:51:17;;;;;;;221.05;28.80;;;6.70;99.90;;;;;;5068270;28;20044;-64
2023/04/16 05:53:43;;;;;;;402.10;37.88;;;6.70;99.90;;;;;;5066783;28;20061;-65
2023/04/16 05:56:08;;;;;;;148.52;26.23;;;6.70;99.90;;;;;;5067554;28;20080;-65
2023/04/16 05:58:34;;;;;;;56.55;23.17;;;6.70;99.90;;;;;;5067086;28;20036;-65
2023/04/16 06:01:00;;;;;;;105.85;25.65;;;6.70;99.90;;;;;;5066760;28;20461;-66
2023/04/16 06:03:26;;;;;;;207.70;31.60;;;6.80;99.90;;;;;;5069840;28;20151;-65
2023/04/16 06:05:52;;;;;;;217.90;28.80;;;6.80;99.90;;;;;;5071413;28;20052;-65
2023/04/16 06:08:17;;;;;;;;;;;6.80;99.90;;;;;;5070051;28;20048;-65
2023/04/16 06:10:46;;;;;;;493.80;45.55;;;6.90;99.90;;;;;;5069676;28;20315;-63
2023/04/16 06:13:12;;;;;;;298.70;35.63;;;6.80;99.90;;;;;;5070856;28;20808;-65
2023/04/16 06:15:37;;;;;;;216.57;28.23;;;6.70;99.90;;;;;;5067670;28;20071;-64
2023/04/16 06:18:03;;;;;;;144.57;27.52;;;6.80;99.90;;;;;;5071163;28;20065;-66
2023/04/16 06:20:30;;;;;;;437.98;45.67;;;6.80;99.90;;;;;;5068907;28;20047;-66
2023/04/16 06:22:55;;;;;;;119.97;26.83;;;6.70;99.90;;;;;;5072226;28;20127;-65
2023/04/16 06:25:21;;;;;;;219.30;32.42;;;6.70;99.90;;;;;;5071252;28;20043;-68
2023/04/16 06:27:46;;;;;;;71.68;25.73;;;6.80;99.90;;;;;;5075542;28;20171;-65
2023/04/16 06:30:14;;;;;;;133.23;29.70;;;6.80;99.90;;;;;;5073780;28;20116;-65
2023/04/16 06:32:41;;;;;;;126.20;30.02;;;6.80;99.90;;;;;;5090319;28;20049;-66
2023/04/16 06:35:07;;;;;;;148.13;30.13;;;6.80;99.90;;;;;;5071905;28;20039;-67
2023/04/16 06:37:32;;;;;;;71.07;26.27;;;6.90;99.90;;;;;;5071117;28;20036;-66
2023/04/16 06:39:58;;;;;;;133.95;26.33;;;6.80;99.90;;;;;;5069390;28;20226;-64
2023/04/16 06:42:23;;;;;;;138.98;28.90;;;7.00;99.90;;;;;;5067037;28;20040;-64
2023/04/16 06:44:49;;;;;;;42.85;22.55;;;7.00;99.90;;;;;;5066610;28;20079;-64
2023/04/16 06:47:15;;;;;;;;;;;7.00;99.90;;;;;;5070541;28;20048;-65
2023/04/16 06:49:40;;;;;;;73.20;23.40;;;7.00;99.90;;;;;;5070404;28;19923;-65
2023/04/16 06:52:06;;;;;;;;;;;7.00;99.90;;;;;;5069472;28;20047;-64
2023/04/16 06:54:32;;;;;;;65.65;22.50;;;7.10;99.90;;;;;;5066987;28;19924;-65
2023/04/16 06:56:57;;;;;;;115.95;26.30;;;7.10;99.90;;;;;;5069119;28;20671;-63
2023/04/16 06:59:23;;;;;;;166.10;27.10;;;7.10;99.90;;;;;;5070012;28;20458;-64
2023/04/16 07:01:48;;;;;;;58.90;26.33;;;7.10;99.90;;;;;;5068603;28;20462;-65
2023/04/16 07:04:14;;;;;;;43.58;22.88;;;7.00;99.90;;;;;;5069576;28;20040;-64
2023/04/16 07:06:40;;;;;;;81.97;24.85;;;7.10;99.90;;;;;;5070415;28;20055;-64
2023/04/16 07:09:05;;;;;;;51.15;22.60;;;7.10;99.90;;;;;;5070547;28;20055;-65
2023/04/16 07:11:31;;;;;;;76.90;24.73;;;7.10;99.90;;;;;;5068902;28;20036;-65
2023/04/16 07:13:57;;;;;;;137.52;26.85;;;7.10;99.90;;;;;;5069882;28;20494;-63
2023/04/16 07:16:23;;;;;;;94.72;28.40;;;7.10;99.90;;;;;;5070009;28;20048;-65
2023/04/16 07:18:49;;;;;;;223.63;33.70;;;7.10;99.90;;;;;;5070378;28;20055;-64
2023/04/16 07:21:15;;;;;;;247.50;32.85;;;7.00;99.90;;;;;;5068414;28;20039;-66
2023/04/16 07:23:40;;;;;;;;;;;6.90;99.90;;;;;;5067999;28;20315;-67
2023/04/16 07:26:06;;;;;;;320.63;32.80;;;7.00;99.90;;;;;;5069458;28;19928;-65
2023/04/16 07:28:31;;;;;;;;;;;6.90;99.90;;;;;;5072992;28;20040;-65
2023/04/16 07:30:57;;;;;;;189.48;29.42;;;6.90;99.90;;;;;;5071212;28;19925;-65
2023/04/16 07:33:23;;;;;;;118.30;27.45;;;6.90;99.90;;;;;;5069941;28;20495;-66
2023/04/16 07:35:50;;;;;;;148.63;28.00;;;6.90;99.90;;;;;;5071829;28;20640;-65
2023/04/16 07:38:15;;;;;;;198.40;31.52;;;6.90;99.90;;;;;;5074033;28;20126;-65
2023/04/16 07:40:41;;;;;;;251.85;36.67;;;6.90;99.90;;;;;;5072515;28;20906;-65
2023/04/16 07:43:07;;;;;;;;;;;6.90;99.90;;;;;;5071641;28;20101;-65
2023/04/16 07:45:32;;;;;;;130.20;33.95;;;6.80;99.90;;;;;;5073569;28;19925;-64
2023/04/16 07:47:58;;;;;;;203.30;34.20;;;6.90;99.90;;;;;;5073341;28;20052;-65
2023/04/16 07:50:24;;;;;;;235.52;35.33;;;6.90;99.90;;;;;;5072495;28;20044;-65
2023/04/16 07:52:49;;;;;;;211.10;35.15;;;6.90;99.90;;;;;;5072136;28;20043;-64
2023/04/16 07:55:15;;;;;;;84.43;29.63;;;6.90;99.90;;;;;;5072930;28;20930;-66
2023/04/16 07:57:41;;;;;;;;;;;6.90;99.90;;;;;;5074044;28;20128;-65
2023/04/16 08:00:07;;;;;;;60.13;25.73;;;6.90;99.90;;;;;;5073081;28;19920;-66
2023/04/16 08:02:33;;;;;;;363.42;43.15;;;7.00;99.90;;;;;;5068693;28;20535;-64
2023/04/16 08:04:59;;;;;;;230.00;31.77;;;7.00;99.90;;;;;;5071556;28;20036;-66
2023/04/16 08:07:25;;;;;;;69.20;26.55;;;7.00;99.90;;;;;;5073578;28;20056;-65
2023/04/16 08:09:51;;;;;;;177.00;28.88;;;7.00;99.90;;;;;;5073231;28;20098;-66
2023/04/16 08:12:17;;;;;;;176.60;32.47;;;7.00;99.90;;;;;;5068859;28;20044;-66
2023/04/16 08:14:44;;;;;;;103.75;27.92;;;7.10;99.90;;;;;;5068894;28;20040;-66
2023/04/16 08:17:19;;;;;;;135.10;27.60;;;7.10;99.90;;;;;;5071009;28;20652;-65
2023/04/16 08:19:45;;;;;;;180.45;28.48;;;7.10;99.90;;;;;;5073023;28;20072;-66
2023/04/16 08:22:11;;;;;;;426.20;46.60;;;7.10;99.90;;;;;;5070241;28;20132;-65
2023/04/16 08:24:37;;;;;;;237.63;32.03;;;7.00;99.90;;;;;;5070825;28;20040;-65
2023/04/16 08:27:03;;;;;;;119.68;26.98;;;7.10;99.90;;;;;;5071833;28;20051;-67
2023/04/16 08:29:29;;;;;;;87.65;27.13;;;7.10;99.90;;;;;;5072800;28;20174;-67
2023/04/16 08:31:55;;;;;;;240.35;34.13;;;7.20;99.90;;;;;;5070785;28;20140;-65
2023/04/16 08:34:21;;;;;;;90.80;28.65;;;7.10;99.90;;;;;;5072930;28;20051;-67
2023/04/16 08:36:47;;;;;;;228.13;33.70;;;7.20;99.90;;;;;;5072241;28;20040;-64
2023/04/16 08:39:12;;;;;;;171.43;32.40;;;7.10;99.90;;;;;;5072100;28;20048;-66
2023/04/16 08:41:42;;;;;;;163.65;33.70;;;7.20;99.90;;;;;;5069570;28;20048;-66
2023/04/16 08:44:10;;;;;;;133.07;29.08;;;7.20;99.90;;;;;;5072730;28;20052;-64
2023/04/16 08:46:37;;;;;;;92.57;28.35;;;7.10;99.90;;;;;;5072887;28;20136;-65
2023/04/16 08:49:05;;;;;;;148.90;29.88;;;7.20;99.90;;;;;;5072856;28;20070;-65
2023/04/16 08:51:34;;;;;;;146.48;30.90;;;7.20;99.90;;;;;;5072027;28;20040;-64
2023/04/16 08:54:05;;;;;;;55.20;26.27;;;7.10;99.90;;;;;;5072211;28;20055;-66
2023/04/16 08:56:34;;;;;;;208.15;33.28;;;7.10;99.90;;;;;;5072105;28;20126;-67
2023/04/16 08:59:04;;;;;;;112.47;28.35;;;7.10;99.90;;;;;;5072801;28;20041;-65
2023/04/16 09:01:32;;;;;;;198.20;34.58;;;7.00;99.90;;;;;;5068388;28;20044;-65
2023/04/16 09:04:01;;;;;;;106.40;29.30;;;7.00;99.90;;;;;;5069276;28;20056;-65
2023/04/16 09:06:27;;;;;;;111.25;28.95;;;7.00;99.90;;;;;;5070339;28;20695;-66
2023/04/16 09:08:53;;;;;;;276.35;33.20;;;7.00;99.90;;;;;;5072653;28;20100;-63
2023/04/16 09:11:20;;;;;;;132.25;27.67;;;6.90;99.90;;;;;;5068169;28;20066;-63
2023/04/16 09:13:46;;;;;;;114.10;26.95;;;6.90;99.90;;;;;;5068107;28;20067;-64
2023/04/16 09:16:13;;;;;;;117.07;25.55;;;6.90;99.90;;;;;;5069064;28;20043;-66
2023/04/16 09:18:39;;;;;;;177.40;31.15;;;7.00;99.90;;;;;;5071422;28;20036;-66
2023/04/16 09:21:06;;;;;;;230.80;40.25;;;7.10;99.90;;;;;;5070995;28;20037;-66
2023/04/16 09:23:32;;;;;;;323.23;33.63;;;7.00;99.90;;;;;;5071302;28;20048;-64
2023/04/16 09:25:59;;;;;;;202.13;46.83;;;7.00;99.90;;;;;;5070716;28;20055;-64
2023/04/16 09:28:42;;;;;;;154.77;71.13;;;7.10;99.90;;;;;;5072432;28;20856;-65
2023/04/16 09:31:16;;;;;;;75.07;27.13;;;7.10;99.90;;;;;;5069843;28;20182;-66
2023/04/16 09:33:43;;;;;;;384.55;43.65;;;7.10;99.90;;;;;;5073811;28;20545;-63
2023/04/16 09:36:09;;;;;;;156.50;34.00;;;7.10;99.90;;;;;;5071527;28;20909;-63
2023/04/16 09:38:49;;;;;;;77.40;28.42;;;7.10;99.90;;;;;;5071775;28;20159;-65
2023/04/16 09:41:15;;;;;;;50.50;27.48;;;7.10;99.90;;;;;;5071816;28;20044;-65
2023/04/16 09:43:47;;;;;;;77.93;28.45;;;7.20;99.90;;;;;;5071301;28;20672;-64
2023/04/16 09:46:13;;;;;;;67.63;30.27;;;7.10;99.90;;;;;;5065099;28;20408;-65
2023/04/16 09:48:39;;;;;;;64.50;28.15;;;7.00;99.90;;;;;;5071525;28;20094;-62
2023/04/16 09:51:05;;;;;;;;;;;7.10;99.90;;;;;;5069979;28;20036;-66
2023/04/16 09:53:31;;;;;;;47.13;25.83;;;7.10;99.90;;;;;;5072168;28;20058;-66
2023/04/16 09:56:15;;;;;;;54.55;27.42;;;7.10;99.90;;;;;;5070887;28;20063;-66
2023/04/16 09:58:41;;;;;;;61.53;29.25;;;7.10;99.90;;;;;;5071738;28;20036;-65
2023/04/16 10:01:09;;;;;;;61.17;29.80;;;7.00;99.90;;;;;;5068522;28;20522;-64
2023/04/16 10:03:37;;;;;;;53.10;28.35;;;7.10;99.90;;;;;;5066900;28;20044;-63
2023/04/16 10:06:06;;;;;;;48.28;27.13;;;7.10;99.90;;;;;;5066510;28;20048;-65
2023/04/16 10:08:32;;;;;;;54.92;29.80;;;7.20;99.90;;;;;;5070360;28;20051;-63
2023/04/16 10:10:58;;;;;;;59.83;32.25;;;7.20;99.90;;;;;;5070383;28;20045;-64
2023/04/16 10:13:26;;;;;;;51.05;27.55;;;7.20;99.90;;;;;;5070720;28;20630;-62
2023/04/16 10:15:55;;;;;;;49.35;26.52;;;7.20;99.90;;;;;;5070878;28;20658;-65
2023/04/16 10:18:21;;;;;;;45.08;25.55;;;7.30;99.90;;;;;;5070460;28;20093;-66
2023/04/16 10:20:49;;;;;;;51.05;28.25;;;7.40;99.90;;;;;;5070321;28;20064;-65
2023/04/16 10:23:14;;;;;;;42.25;25.20;;;7.40;99.90;;;;;;5070098;28;20044;-65
2023/04/16 10:25:41;;;;;;;41.70;24.35;;;7.50;99.90;;;;;;5068145;28;20085;-65
2023/04/16 10:28:08;;;;;;;46.35;26.00;;;7.50;99.90;;;;;;5070286;28;20048;-67
2023/04/16 10:30:35;;;;;;;42.28;23.63;;;7.60;99.90;;;;;;5070118;28;20158;-65
2023/04/16 10:33:03;;;;;;;44.22;25.10;;;7.60;99.90;;;;;;5071037;28;20044;-66
2023/04/16 10:35:30;;;;;;;42.17;24.17;;;7.70;99.90;;;;;;5071198;28;20396;-64
2023/04/16 10:37:56;;;;;;;40.65;23.35;;;7.70;99.90;;;;;;5071204;28;20050;-64
2023/04/16 10:40:26;;;;;;;40.47;23.67;;;7.80;99.90;;;;;;5070606;28;20041;-65
2023/04/16 10:42:57;;;;;;;39.15;22.02;;;7.80;99.90;;;;;;5068579;28;20741;-67
2023/04/16 10:45:29;;;;;;;38.78;22.08;;;7.80;99.90;;;;;;5069502;28;20127;-66
2023/04/16 10:47:56;;;;;;;36.10;21.67;;;7.80;99.90;;;;;;5071033;28;20096;-67
2023/04/16 10:50:22;;;;;;;38.45;23.45;;;7.90;99.90;;;;;;5071574;28;20085;-69
2023/04/16 10:52:47;;;;;;;;;;;7.80;99.90;;;;;;5070871;28;20040;-68
2023/04/16 10:55:16;;;;;;;43.40;24.55;;;7.80;99.90;;;;;;5072541;28;19915;-67
2023/04/16 10:57:42;;;;;;;39.92;22.60;;;7.90;99.90;;;;;;5073042;28;20105;-70
2023/04/16 11:00:23;;;;;;;;;;;7.90;99.90;;;;;;5074160;28;20041;-69
2023/04/16 11:02:52;;;;;;;44.92;25.05;;;7.90;99.90;;;;;;5071887;28;19923;-66
2023/04/16 11:05:22;;;;;;;36.97;22.52;;;8.10;99.90;;;;;;5071517;28;20040;-69
2023/04/16 11:07:48;;;;;;;34.17;21.73;;;8.10;99.90;;;;;;5073358;28;20040;-66
2023/04/16 11:10:14;;;;;;;;;;;8.20;99.90;;;;;;5072704;28;20093;-66
2023/04/16 11:12:45;;;;;;;36.70;20.98;;;8.30;99.90;;;;;;5071132;28;19956;-66
2023/04/16 11:15:12;;;;;;;41.58;23.90;;;8.20;99.90;;;;;;5088958;28;20040;-68
2023/04/16 11:17:51;;;;;;;42.83;22.80;;;8.10;99.90;;;;;;5071146;28;20040;-67
2023/04/16 11:20:25;;;;;;;44.00;22.98;;;8.00;99.90;;;;;;5071671;28;20048;-69
2023/04/16 11:22:54;;;;;;;39.83;23.40;;;7.90;99.90;;;;;;5072984;28;20040;-71
2023/04/16 11:25:32;;;;;;;35.42;23.02;;;7.90;99.90;;;;;;5071835;28;20075;-67
2023/04/16 11:27:58;;;;;;;43.55;24.25;;;8.00;99.90;;;;;;5072719;28;20041;-66
2023/04/16 11:30:28;;;;;;;;;;;7.90;99.90;;;;;;5070946;28;20090;-68
2023/04/16 11:32:54;;;;;;;45.88;25.95;;;7.90;99.90;;;;;;5070510;28;20319;-67
2023/04/16 11:35:19;;;;;;;;;;;7.90;99.90;;;;;;5072837;28;20040;-69
2023/04/16 11:37:47;;;;;;;39.00;21.90;;;7.90;99.90;;;;;;5072090;28;20484;-71
2023/04/16 11:40:13;;;;;;;46.85;24.92;;;8.00;99.90;;;;;;5071400;28;20127;-67
2023/04/16 11:42:40;;;;;;;;;;;8.00;99.90;;;;;;5069316;28;20292;-68
2023/04/16 11:45:10;;;;;;;46.55;25.98;;;8.00;99.90;;;;;;5071451;28;19935;-66
2023/04/16 11:47:54;;;;;;;44.05;26.25;;;7.90;99.90;;;;;;5071887;28;20044;-70
2023/04/16 11:50:28;;;;;;;41.65;24.85;;;7.80;99.90;;;;;;5070811;28;20100;-68
2023/04/16 11:52:56;;;;;;;40.25;24.88;;;7.80;99.90;;;;;;5068423;28;20044;-67
2023/04/16 11:55:22;;;;;;;47.00;24.75;;;7.90;99.90;;;;;;5069287;28;20450;-65
2023/04/16 11:57:48;;;;;;;37.92;22.65;;;8.00;99.90;;;;;;5071107;28;20077;-67
2023/04/16 12:00:15;;;;;;;44.97;25.80;;;8.10;99.90;;;;;;5071262;28;20048;-68
2023/04/16 12:02:59;;;;;;;45.00;26.30;;;8.00;99.90;;;;;;5068984;28;20048;-65
2023/04/16 12:05:33;;;;;;;41.88;24.80;;;8.00;99.90;;;;;;5070065;28;20653;-64
2023/04/16 12:08:07;;;;;;;45.05;25.65;;;8.00;99.90;;;;;;5072377;28;20112;-70
2023/04/16 12:10:35;;;;;;;43.65;25.17;;;7.90;99.90;;;;;;5070198;28;20516;-71
2023/04/16 12:13:15;;;;;;;44.85;27.10;;;7.90;99.90;;;;;;5067643;28;20125;-64
2023/04/16 12:15:52;;;;;;;43.40;25.15;;;7.90;99.90;;;;;;5066795;28;20036;-63
2023/04/16 12:18:20;;;;;;;48.65;27.30;;;7.90;99.90;;;;;;5073867;28;20078;-65
2023/04/16 12:20:46;;;;;;;57.22;27.83;;;7.80;99.90;;;;;;5071777;28;20048;-64
2023/04/16 12:23:30;;;;;;;46.95;25.80;;;7.70;99.90;;;;;;5071230;28;20586;-63
2023/04/16 12:26:01;;;;;;;43.33;24.60;;;7.70;99.90;;;;;;5072973;28;21033;-66
2023/04/16 12:28:35;;;;;;;43.88;24.10;;;7.70;99.90;;;;;;5073419;28;20055;-65
2023/04/16 12:31:02;;;;;;;45.25;24.48;;;7.60;99.90;;;;;;5071051;28;20041;-63
2023/04/16 12:33:28;;;;;;;38.65;22.40;;;7.60;99.90;;;;;;5072090;28;20032;-64
2023/04/16 12:35:54;;;;;;;42.38;23.58;;;7.60;99.90;;;;;;5073061;28;20058;-63
2023/04/16 12:38:20;;;;;;;37.20;21.73;;;7.70;99.90;;;;;;5073320;28;20040;-65
2023/04/16 12:40:46;;;;;;;33.78;20.48;;;7.70;99.90;;;;;;5072520;28;20590;-64
2023/04/16 12:43:12;;;;;;;31.45;19.63;;;7.80;99.90;;;;;;5071989;28;20040;-65